^^
Meteo Knjazevac Station Historical Data
Daily Summary for January 13, 2021 Units:  Metric    English   Both
Daily Weekly Monthly Yearly Custom
  High: Low: Average:
Temperature: 30.5 °C 8.6 °C 19.3 °C
Dew Point: 14.6 °C 6.4 °C 10.2 °C
Humidity: 88% 34% 59%
Wind Speed: 14.5km/h 0km/h 2.6km/h
Wind Gust: 24.1km/h - -
Wind- - WSW
Pressure: 1018.8 hPa 1015.8 hPa -
Precipitation: 0 mm    
Historical Graphs
 
 
Tabular Data for January 13, 2021
Time Temperature Dew Point Pressure Wind Wind Speed Wind Gust Humidity Rainfall Rate (Hourly) solar Conditions
00:00 13.7 °C 8.1 °C 1017.5 hPa Calm   4.8 km/h 69% 0 mm 0 W/m2
00:10 13.6 °C 8.2 °C 1017.5 hPa Calm   3.2 km/h 70% 0 mm 0 W/m2
00:20 13.2 °C 7.8 °C 1017.5 hPa Calm   1.6 km/h 70% 0 mm 0 W/m2
00:30 12.9 °C 7.9 °C 1017.5 hPa Calm   3.2 km/h 72% 0 mm 0 W/m2
00:40 12.7 °C 7.8 °C 1017.5 hPa Calm   1.6 km/h 72% 0 mm 0 W/m2
00:50 12.4 °C 7.7 °C 1017.5 hPa Calm   3.2 km/h 73% 0 mm 0 W/m2
01:00 12.2 °C 7.5 °C 1017.5 hPa Calm   3.2 km/h 73% 0 mm 0 W/m2
01:10 12 °C 7.5 °C 1017.5 hPa Calm   3.2 km/h 74% 0 mm 0 W/m2
01:20 11.7 °C 7.2 °C 1017.5 hPa West 1.6 km/h 3.2 km/h 74% 0 mm 0 W/m2
01:30 11.5 °C 7.2 °C 1017.5 hPa NW 1.6 km/h 4.8 km/h 75% 0 mm 0 W/m2
01:40 11.5 °C 7.6 °C 1017.5 hPa WNW 1.6 km/h 6.4 km/h 77% 0 mm 0 W/m2
01:50 11.4 °C 7.5 °C 1017.5 hPa WNW 1.6 km/h 3.2 km/h 77% 0 mm 0 W/m2
02:00 11.2 °C 7.3 °C 1017.5 hPa West 1.6 km/h 3.2 km/h 77% 0 mm 0 W/m2
02:10 11 °C 7.3 °C 1017.5 hPa WNW 1.6 km/h 3.2 km/h 78% 0 mm 0 W/m2
02:20 10.8 °C 7.1 °C 1017.5 hPa Calm   3.2 km/h 78% 0 mm 0 W/m2
02:30 10.7 °C 7 °C 1017.5 hPa Calm   3.2 km/h 78% 0 mm 0 W/m2
02:40 10.6 °C 7.1 °C 1017.5 hPa Calm   3.2 km/h 79% 0 mm 0 W/m2
02:50 10.5 °C 7.2 °C 1017.5 hPa NW 1.6 km/h 4.8 km/h 80% 0 mm 0 W/m2
03:00 10.4 °C 6.9 °C 1017.5 hPa Calm   3.2 km/h 79% 0 mm 0 W/m2
03:10 10.3 °C 6.8 °C 1017.5 hPa Calm   3.2 km/h 79% 0 mm 0 W/m2
03:20 10.2 °C 6.9 °C 1017.5 hPa Calm   3.2 km/h 80% 0 mm 0 W/m2
03:30 10.1 °C 6.8 °C 1017.8 hPa West 1.6 km/h 3.2 km/h 80% 0 mm 0 W/m2
03:40 9.9 °C 6.6 °C 1017.8 hPa WNW 1.6 km/h 3.2 km/h 80% 0 mm 0 W/m2
03:50 9.8 °C 6.7 °C 1017.8 hPa WNW 1.6 km/h 3.2 km/h 81% 0 mm 0 W/m2
04:00 9.7 °C 6.6 °C 1017.8 hPa NNW 1.6 km/h 3.2 km/h 81% 0 mm 0 W/m2
04:10 9.7 °C 6.6 °C 1017.8 hPa Calm   4.8 km/h 81% 0 mm 0 W/m2
04:20 9.5 °C 6.8 °C 1017.8 hPa WSW 1.6 km/h 6.4 km/h 83% 0 mm 0 W/m2
04:30 9.4 °C 6.7 °C 1017.8 hPa Calm   3.2 km/h 83% 0 mm 0 W/m2
04:40 9.3 °C 6.7 °C 1017.8 hPa West 3.2 km/h 4.8 km/h 84% 0 mm 0 W/m2
04:50 9.3 °C 6.7 °C 1017.8 hPa WNW 1.6 km/h 4.8 km/h 84% 0 mm 0 W/m2
05:00 9.3 °C 6.7 °C 1017.8 hPa WNW 1.6 km/h 6.4 km/h 84% 0 mm 0 W/m2
05:10 9.2 °C 6.6 °C 1017.8 hPa West 1.6 km/h 4.8 km/h 84% 0 mm 0 W/m2
05:20 9.1 °C 6.6 °C 1017.8 hPa WSW 1.6 km/h 4.8 km/h 84% 0 mm 0 W/m2
05:30 9 °C 6.6 °C 1017.8 hPa West 3.2 km/h 4.8 km/h 85% 0 mm 0 W/m2
05:40 9 °C 6.6 °C 1018.2 hPa West 1.6 km/h 4.8 km/h 85% 0 mm 0 W/m2
05:50 9.1 °C 6.7 °C 1018.2 hPa Calm   3.2 km/h 85% 0 mm 0 W/m2
06:00 9 °C 6.6 °C 1018.2 hPa NNW 1.6 km/h 3.2 km/h 85% 0 mm 0 W/m2
06:10 8.9 °C 6.5 °C 1018.2 hPa WNW 1.6 km/h 3.2 km/h 85% 0 mm 3 W/m2
06:20 8.8 °C 6.4 °C 1018.2 hPa Calm   3.2 km/h 85% 0 mm 11 W/m2
06:30 8.8 °C 6.4 °C 1018.2 hPa WNW 1.6 km/h 4.8 km/h 85% 0 mm 21 W/m2
06:40 8.8 °C 6.4 °C 1018.2 hPa WNW 1.6 km/h 4.8 km/h 85% 0 mm 31 W/m2
06:50 8.6 °C 6.4 °C 1018.2 hPa WSW 3.2 km/h 4.8 km/h 86% 0 mm 41 W/m2
07:00 8.6 °C 6.7 °C 1018.5 hPa WNW 3.2 km/h 6.4 km/h 88% 0 mm 71 W/m2
07:10 8.8 °C 6.9 °C 1018.5 hPa Calm   4.8 km/h 88% 0 mm 98 W/m2
07:20 9 °C 7.1 °C 1018.5 hPa West 3.2 km/h 4.8 km/h 88% 0 mm 125 W/m2
07:30 9.3 °C 7.4 °C 1018.5 hPa WNW 1.6 km/h 4.8 km/h 88% 0 mm 154 W/m2
07:40 9.7 °C 7.8 °C 1018.5 hPa WNW 1.6 km/h 4.8 km/h 88% 0 mm 183 W/m2
07:50 10.1 °C 8.2 °C 1018.5 hPa WNW 1.6 km/h 3.2 km/h 88% 0 mm 214 W/m2
08:00 10.6 °C 8.3 °C 1018.5 hPa NW 1.6 km/h 3.2 km/h 86% 0 mm 243 W/m2
08:10 11.2 °C 8.9 °C 1018.5 hPa WNW 1.6 km/h 4.8 km/h 86% 0 mm 278 W/m2
08:20 11.9 °C 9.4 °C 1018.5 hPa WSW 1.6 km/h 3.2 km/h 85% 0 mm 313 W/m2
08:30 12.8 °C 10.2 °C 1018.5 hPa WSW 1.6 km/h 3.2 km/h 84% 0 mm 344 W/m2
08:40 14.1 °C 10.5 °C 1018.5 hPa West 1.6 km/h 3.2 km/h 79% 0 mm 376 W/m2
08:50 15.6 °C 11 °C 1018.5 hPa SW 1.6 km/h 3.2 km/h 74% 0 mm 319 W/m2
09:00 16.8 °C 11.7 °C 1018.5 hPa WSW 1.6 km/h 3.2 km/h 72% 0 mm 143 W/m2
09:10 17.9 °C 11.9 °C 1018.5 hPa Calm   3.2 km/h 68% 0 mm 370 W/m2
09:20 19 °C 12.3 °C 1018.5 hPa Calm   3.2 km/h 65% 0 mm 510 W/m2
09:30 20 °C 13 °C 1018.5 hPa WNW 1.6 km/h 3.2 km/h 64% 0 mm 542 W/m2
09:40 21 °C 13.4 °C 1018.5 hPa SW 1.6 km/h 4.8 km/h 62% 0 mm 566 W/m2
09:50 21.8 °C 12.9 °C 1018.5 hPa North 1.6 km/h 3.2 km/h 57% 0 mm 590 W/m2
10:00 22.5 °C 13 °C 1018.5 hPa Calm   4.8 km/h 55% 0 mm 612 W/m2
10:10 23.2 °C 13.1 °C 1018.5 hPa Calm   6.4 km/h 53% 0 mm 633 W/m2
10:20 23.8 °C 13.3 °C 1018.5 hPa SSE 1.6 km/h 6.4 km/h 52% 0 mm 653 W/m2
10:30 24.4 °C 13.9 °C 1018.2 hPa WNW 1.6 km/h 4.8 km/h 52% 0 mm 671 W/m2
10:40 25 °C 13.2 °C 1018.2 hPa ESE 1.6 km/h 8 km/h 48% 0 mm 161 W/m2
10:50 25.6 °C 13.8 °C 1018.2 hPa West 1.6 km/h 4.8 km/h 48% 0 mm 704 W/m2
11:00 26.1 °C 13.9 °C 1018.2 hPa WNW 3.2 km/h 6.4 km/h 47% 0 mm 718 W/m2
11:10 26.6 °C 14.3 °C 1017.8 hPa ENE 3.2 km/h 8 km/h 47% 0 mm 731 W/m2
11:20 27.1 °C 14.2 °C 1017.8 hPa NNE 3.2 km/h 14.5 km/h 45% 0 mm 742 W/m2
11:30 27.5 °C 14.2 °C 1017.8 hPa East 4.8 km/h 9.7 km/h 44% 0 mm 396 W/m2
11:40 27.6 °C 13.9 °C 1017.8 hPa ESE 4.8 km/h 16.1 km/h 43% 0 mm 230 W/m2
11:50 27.8 °C 14.4 °C 1017.8 hPa ESE 3.2 km/h 16.1 km/h 44% 0 mm 698 W/m2
12:00 28.3 °C 14.5 °C 1017.5 hPa SSE 4.8 km/h 12.9 km/h 43% 0 mm 771 W/m2
12:10 28.4 °C 14.2 °C 1017.5 hPa SSE 4.8 km/h 12.9 km/h 42% 0 mm 774 W/m2
12:20 28.6 °C 13.7 °C 1017.5 hPa SSE 3.2 km/h 12.9 km/h 40% 0 mm 776 W/m2
12:30 28.8 °C 13.8 °C 1017.2 hPa SSW 3.2 km/h 11.3 km/h 40% 0 mm 776 W/m2
12:40 28.8 °C 13.9 °C 1017.2 hPa SSW 1.6 km/h 12.9 km/h 40% 0 mm 774 W/m2
12:50 29.3 °C 14.3 °C 1017.2 hPa ENE 3.2 km/h 11.3 km/h 40% 0 mm 771 W/m2
13:00 29.6 °C 14.6 °C 1017.2 hPa SE 3.2 km/h 11.3 km/h 40% 0 mm 766 W/m2
13:10 30 °C 14.6 °C 1017.2 hPa NNE 3.2 km/h 11.3 km/h 39% 0 mm 759 W/m2
13:20 30.3 °C 14.4 °C 1016.8 hPa ENE 3.2 km/h 16.1 km/h 38% 0 mm 751 W/m2
13:30 30.5 °C 14.6 °C 1016.8 hPa East 8 km/h 16.1 km/h 38% 0 mm 227 W/m2
13:40 30 °C 14.1 °C 1016.8 hPa SE 8 km/h 11.3 km/h 38% 0 mm 730 W/m2
13:50 30.2 °C 14.3 °C 1016.5 hPa West 4.8 km/h 8 km/h 38% 0 mm 718 W/m2
14:00 30.4 °C 14.5 °C 1016.5 hPa SW 3.2 km/h 12.9 km/h 38% 0 mm 703 W/m2
14:10 30.3 °C 14 °C 1016.5 hPa SSW 1.6 km/h 11.3 km/h 37% 0 mm 687 W/m2
14:20 30.5 °C 14.6 °C 1016.5 hPa SW 8 km/h 12.9 km/h 38% 0 mm 670 W/m2
14:30 30.5 °C 14.2 °C 1016.5 hPa SW 9.7 km/h 14.5 km/h 37% 0 mm 248 W/m2
14:40 30 °C 13.7 °C 1016.1 hPa West 1.6 km/h 12.9 km/h 37% 0 mm 632 W/m2
14:50 30 °C 13.7 °C 1016.1 hPa NNW 1.6 km/h 6.4 km/h 37% 0 mm 287 W/m2
15:00 30.2 °C 13.9 °C 1016.1 hPa NNE 4.8 km/h 11.3 km/h 37% 0 mm 588 W/m2
15:10 30.1 °C 13.8 °C 1016.1 hPa NNE 1.6 km/h 9.7 km/h 37% 0 mm 163 W/m2
15:20 29.9 °C 14 °C 1016.1 hPa NNE 4.8 km/h 8 km/h 38% 0 mm 156 W/m2
15:30 29.6 °C 13.8 °C 1016.1 hPa NNE 1.6 km/h 9.7 km/h 38% 0 mm 199 W/m2
15:40 29.5 °C 13.7 °C 1016.1 hPa NE 1.6 km/h 11.3 km/h 38% 0 mm 437 W/m2
15:50 29.6 °C 13.4 °C 1016.1 hPa NE 3.2 km/h 9.7 km/h 37% 0 mm 147 W/m2
16:00 29.4 °C 13.6 °C 1015.8 hPa North 4.8 km/h 11.3 km/h 38% 0 mm 151 W/m2
16:10 29.2 °C 13.4 °C 1015.8 hPa West 8 km/h 14.5 km/h 38% 0 mm 375 W/m2
16:20 29.3 °C 13.1 °C 1015.8 hPa West 8 km/h 12.9 km/h 37% 0 mm 375 W/m2
16:30 29.4 °C 13.2 °C 1015.8 hPa WSW 4.8 km/h 14.5 km/h 37% 0 mm 329 W/m2
16:40 29.4 °C 12.3 °C 1015.8 hPa WSW 9.7 km/h 19.3 km/h 35% 0 mm 306 W/m2
16:50 29.3 °C 12.3 °C 1015.8 hPa West 8 km/h 19.3 km/h 35% 0 mm 276 W/m2
17:00 29.2 °C 11.7 °C 1015.8 hPa WNW 11.3 km/h 19.3 km/h 34% 0 mm 242 W/m2
17:10 28.9 °C 11.4 °C 1015.8 hPa West 14.5 km/h 22.5 km/h 34% 0 mm 208 W/m2
17:20 28.8 °C 11.8 °C 1016.1 hPa West 11.3 km/h 24.1 km/h 35% 0 mm 177 W/m2
17:30 28.5 °C 11.1 °C 1016.1 hPa West 9.7 km/h 19.3 km/h 34% 0 mm 151 W/m2
17:40 28.2 °C 11.3 °C 1016.1 hPa West 9.7 km/h 19.3 km/h 35% 0 mm 120 W/m2
17:50 27.9 °C 10.6 °C 1016.1 hPa West 9.7 km/h 16.1 km/h 34% 0 mm 92 W/m2
18:00 27.6 °C 10.8 °C 1016.1 hPa WNW 8 km/h 16.1 km/h 35% 0 mm 69 W/m2
18:10 27.3 °C 10.5 °C 1016.5 hPa WNW 9.7 km/h 19.3 km/h 35% 0 mm 50 W/m2
18:20 27 °C 11.1 °C 1016.5 hPa WNW 8 km/h 16.1 km/h 37% 0 mm 33 W/m2
18:30 26.6 °C 10.7 °C 1016.5 hPa WNW 1.6 km/h 11.3 km/h 37% 0 mm 18 W/m2
18:40 26.1 °C 10.7 °C 1016.5 hPa NNW 3.2 km/h 8 km/h 38% 0 mm 9 W/m2
18:50 25.7 °C 10.3 °C 1016.5 hPa NNW 3.2 km/h 9.7 km/h 38% 0 mm 0 W/m2
19:00 25.1 °C 10.2 °C 1016.5 hPa NNW 3.2 km/h 8 km/h 39% 0 mm 0 W/m2
19:10 24.7 °C 9.8 °C 1016.8 hPa NNW 3.2 km/h 8 km/h 39% 0 mm 0 W/m2
19:20 24.2 °C 9.7 °C 1017.2 hPa NNW 1.6 km/h 6.4 km/h 40% 0 mm 0 W/m2
19:30 23.6 °C 10.3 °C 1017.2 hPa Calm   4.8 km/h 43% 0 mm 0 W/m2
19:40 22.9 °C 9.9 °C 1017.2 hPa Calm   3.2 km/h 44% 0 mm 0 W/m2
19:50 22.3 °C 9.8 °C 1017.5 hPa SSW 1.6 km/h 3.2 km/h 45% 0 mm 0 W/m2
20:00 21.7 °C 10.2 °C 1017.5 hPa South 1.6 km/h 4.8 km/h 48% 0 mm 0 W/m2
20:10 21.2 °C 10.1 °C 1017.8 hPa West 1.6 km/h 3.2 km/h 49% 0 mm 0 W/m2
20:20 20.8 °C 10.6 °C 1017.8 hPa SW 1.6 km/h 3.2 km/h 52% 0 mm 0 W/m2
20:30 20.3 °C 10.1 °C 1017.8 hPa SW 1.6 km/h 4.8 km/h 52% 0 mm 0 W/m2
20:40 19.9 °C 10.3 °C 1017.8 hPa West 3.2 km/h 4.8 km/h 54% 0 mm 0 W/m2
20:50 19.3 °C 9.7 °C 1018.2 hPa WSW 4.8 km/h 8 km/h 54% 0 mm 0 W/m2
21:00 18.9 °C 9.3 °C 1018.2 hPa WNW 3.2 km/h 8 km/h 54% 0 mm 0 W/m2
21:10 18.4 °C 9.2 °C 1018.2 hPa West 3.2 km/h 8 km/h 55% 0 mm 0 W/m2
21:20 18.1 °C 9.2 °C 1018.2 hPa West 3.2 km/h 8 km/h 56% 0 mm 0 W/m2
21:30 17.8 °C 9.2 °C 1018.2 hPa West 3.2 km/h 8 km/h 57% 0 mm 0 W/m2
21:40 17.4 °C 9.1 °C 1018.5 hPa Calm   4.8 km/h 58% 0 mm 0 W/m2
21:50 17.1 °C 8.8 °C 1018.5 hPa WSW 3.2 km/h 4.8 km/h 58% 0 mm 0 W/m2
22:00 16.9 °C 8.8 °C 1018.5 hPa NW 1.6 km/h 4.8 km/h 59% 0 mm 0 W/m2
22:10 16.8 °C 8.7 °C 1018.5 hPa Calm   3.2 km/h 59% 0 mm 0 W/m2
22:20 16.6 °C 8.6 °C 1018.5 hPa Calm   3.2 km/h 59% 0 mm 0 W/m2
22:30 16.4 °C 9.1 °C 1018.5 hPa Calm   3.2 km/h 62% 0 mm 0 W/m2
22:40 16.1 °C 8.8 °C 1018.5 hPa Calm   3.2 km/h 62% 0 mm 0 W/m2
22:50 15.7 °C 8.7 °C 1018.5 hPa Calm   3.2 km/h 63% 0 mm 0 W/m2
23:00 15.4 °C 8.6 °C 1018.5 hPa Calm   1.6 km/h 64% 0 mm 0 W/m2
23:10 15.1 °C 8.3 °C 1018.8 hPa Calm   1.6 km/h 64% 0 mm 0 W/m2
23:20 14.9 °C 8.3 °C 1018.8 hPa NNW 1.6 km/h 3.2 km/h 65% 0 mm 0 W/m2
23:30 14.6 °C 8.1 °C 1018.8 hPa Calm   1.6 km/h 65% 0 mm 0 W/m2
23:40 14.3 °C 8.2 °C 1018.8 hPa Calm   3.2 km/h 67% 0 mm 0 W/m2
23:50 13.9 °C 8.1 °C 1018.8 hPa Calm   1.6 km/h 68% 0 mm 0 W/m2
Knjazevac, Serbia
Compliments of Weather Underground - 2 mb